Terminal Aerodrome Forecast
Issued by NWS

Home | Current Version | Previous Version | Text Only | Print | Product List | Glossary On
Versions: 1 2 3 4 5 6 7 8 9 10 11 12 13 14
000
FTUS43 KAPX 181700
TAFTVC
TAF
KTVC 181723Z 1818/1918 02006KT P6SM SCT035
     FM190100 00000KT P6SM SKC
     FM190500 00000KT P6SM BKN025
     FM190900 15003KT P6SM OVC019
     FM191500 18008G15KT P6SM SCT035=

USA.gov is the U.S. government's official web portal to all federal, state and local government web resources and services.